Have a Safe July 4th! 

Flight Track Log - Related Links

Times and Time Zones

All times are in EST time to prevent confusion due to time zone crossing. See the FLG4262 flight status page for this flight to view local times or setup timezone preferences in your user account.

Time Position Orientation Groundspeed Altitude Reporting Facility
EST Latitude Longitude Course Direction KTS MPH feet Rate Location/Type
Sat 03:55:31 PM 42.2297 -83.3339 52° Northeast 151 174 1,600  Level Cleveland Center
Sat 03:55:56 PM 42.2417 -83.3131 52° Northeast 177 204 2,600 2,308 Climbing Cleveland Center
Sat 03:56:36 PM 42.2578 -83.2833 54° Northeast 186 214 4,100 2,889 Climbing Cleveland Center
Sat 03:56:50 PM 42.2633 -83.2511 77° East 235 270 5,200 2,419 Climbing Cleveland Center
Sat 03:57:38 PM 42.2508 -83.1928 106° East 256 295 6,600 2,345 Climbing Cleveland Center
Sat 03:58:40 PM 42.2536 -83.0872 88° East 287 330 9,500 2,439 Climbing Cleveland Center
Sat 03:59:41 PM 42.2792 -82.9483 76° East 327 376 11,600 1,902 Climbing Cleveland Center
Sat 04:00:43 PM 42.3019 -82.8181 77° East 354 407 13,400 1,694 Climbing Cleveland Center
Sat 04:01:45 PM 42.3267 -82.6825 76° East 367 422 15,100 1,597 Climbing Cleveland Center
Sat 04:02:47 PM 42.3339 -82.5325 86° East 404 465 16,700 1,366 Climbing Cleveland Center
Sat 04:03:48 PM 42.3350 -82.3764 89° East 413 475 17,900 976 Climbing Cleveland Center
Sat 04:04:50 PM 42.3358 -82.2133 90° East 431 496 18,700 968 Climbing Cleveland Center
Sat 04:05:52 PM 42.3381 -82.0178 89° East 447 514 19,900 1,016 Climbing Cleveland Center
Sat 04:06:54 PM 42.3378 -81.8417 90° East 460 529 20,800 919 Climbing Cleveland Center
Sat 04:07:56 PM 42.3392 -81.6592 89° East 474 545 21,800 732 Climbing Cleveland Center
Sat 04:08:57 PM 42.3389 -81.4717 90° East 489 563 22,300 780 Climbing Cleveland Center
Sat 04:09:59 PM 42.3383 -81.2794 90° East 502 578 23,400 919 Climbing Cleveland Center
Sat 04:11:01 PM 42.3383 -81.0850 90° East 510 587 24,200 677 Climbing Cleveland Center
Sat 04:12:03 PM 42.3375 -80.8869 90° East 520 598 24,800 585 Climbing Cleveland Center
Sat 04:13:04 PM 42.3361 -80.6856 90° East 529 609 25,400 634 Climbing Cleveland Center
Sat 04:14:06 PM 42.3347 -80.4453 90° East 540 621 26,100 677 Climbing Cleveland Center
Sat 04:15:08 PM 42.3342 -80.2356 90° East 550 633 26,800 439 Climbing Cleveland Center
Sat 04:16:09 PM 42.3308 -80.0231 91° East 559 643 27,000 98 Climbing Cleveland Center
Sat 04:17:11 PM 42.3283 -79.8078 91° East 571 657 27,000  Level Cleveland Center
Sat 04:18:13 PM 42.3239 -79.5892 92° East 581 669 27,000  Level Cleveland Center
Sat 04:19:15 PM 42.3200 -79.3683 91° East 590 679 27,000  Level Cleveland Center
Sat 04:20:16 PM 42.3156 -79.1450 91° East 597 687 27,000  Level Cleveland Center
Sat 04:21:18 PM 42.3103 -78.9206 92° East 599 689 27,000  Level Cleveland Center
Sat 04:22:20 PM 42.3056 -78.6886 91° East 600 690 27,000  Level Cleveland Center
Sat 04:23:21 PM 42.2997 -78.4192 92° East 602 693 27,000  Level Cleveland Center
Sat 04:24:23 PM 42.2933 -78.1942 92° East 605 696 27,000 -878 Level Cleveland Center
Sat 04:25:24 PM 42.2867 -77.9739 92° East 598 688 25,200 -1,951 Descending Cleveland Center
Sat 04:26:26 PM 42.2800 -77.7653 92° East 576 663 23,000 -2,129 Descending Cleveland Center
Sat 04:27:28 PM 42.2739 -77.5725 92° East 533 613 20,800 -2,146 Descending Cleveland Center
Sat 04:28:29 PM 42.2675 -77.3906 93° East 499 574 18,600 -1,805 Descending Cleveland Center
Sat 04:29:31 PM 42.2578 -77.1881 94° East 460 529 17,100 -908 Descending Cleveland Center
Sat 04:30:28 PM 42.2519 -77.0294 93° East 454 522 16,800 -1,271 Descending New York Center
Sat 04:31:29 PM 42.2472 -76.8803 92° East 421 484 14,600 -2,100 Descending New York Center
Sat 04:32:28 PM 42.2392 -76.7536 95° East 378 435 12,600 -1,916 Descending New York Center
Sat 04:33:28 PM 42.2369 -76.6300 91° East 350 403 10,800 -1,700 Descending New York Center
Sat 04:34:28 PM 42.2322 -76.5150 93° East 323 372 9,200 -1,650 Descending New York Center
Sat 04:35:28 PM 42.2247 -76.4050 95° East 310 357 7,500 -1,750 Descending New York Center
Sat 04:36:28 PM 42.2217 -76.2956 92° East 297 342 5,700 -1,700 Descending New York Center
Sat 04:37:28 PM 42.1969 -76.1983 109° East 286 329 4,100 -850 Descending New York Center
Sat 04:38:28 PM 42.1369 -76.1431 146° Southeast 254 292 4,000 -50 Descending New York Center
Sat 04:39:28 PM 42.0811 -76.0883 144° Southeast 248 285 4,000  Level New York Center
Sat 04:40:28 PM 42.0275 -76.0336 143° Southeast 248 285 4,000  Level New York Center
Sat 04:41:28 PM 41.9736 -75.9819 145° Southeast 243 280 4,000  Level New York Center
Sat 04:42:28 PM 41.9686 -75.9033 95° East 213 245 4,000  Level New York Center
Sat 04:43:28 PM 41.9839 -75.8350 73° East 201 231 4,000  Level New York Center
Sat 04:44:28 PM 42.0297 -75.8383 357° North 133 153 4,000  Level New York Center
Sat 04:45:28 PM 42.0681 -75.8636 334° Northwest 127 146 4,000  Level New York Center
Sat 04:46:28 PM 42.1003 -75.8914 327° Northwest 133 153 4,000 -250 Level New York Center
Sat 04:47:28 PM 42.1264 -75.9158 325° Northwest 128 147 3,500 -500 Descending New York Center

Login

Don't have an account? Register now (free) for customized features, flight alerts, and more!